Time;durP1;ratioP1;P1;durP2;ratioP2;P2;SDS_P1;SDS_P2;PMS_P1;PMS_P2;Temp;Humidity;BMP_temperature;BMP_pressure;BME280_temperature;BME280_humidity;BME280_pressure;Samples;Min_cycle;Max_cycle;Signal;HPM_P1;HPM_P2
2021/09/18 00:02:03;;;;;;;8.73;6.20;;;13.60;99.90;;;;;;5046402;28;20492;-79
2021/09/18 00:04:31;;;;;;;7.97;6.53;;;13.60;99.90;;;;;;5046044;28;20442;-78
2021/09/18 00:06:58;;;;;;;8.67;6.10;;;13.60;99.90;;;;;;5041438;28;20490;-80
2021/09/18 00:09:25;;;;;;;7.53;6.17;;;13.60;99.90;;;;;;5044590;28;20464;-80
2021/09/18 00:11:52;;;;;;;7.93;6.87;;;13.60;99.90;;;;;;5047029;28;20453;-80
2021/09/18 00:14:21;;;;;;;8.30;6.60;;;13.60;99.90;;;;;;5047770;28;20488;-80
2021/09/18 00:16:48;;;;;;;8.17;6.33;;;13.60;99.90;;;;;;5047837;28;20438;-80
2021/09/18 00:19:15;;;;;;;13.80;6.67;;;13.70;99.90;;;;;;5046799;28;20446;-80
2021/09/18 00:21:43;;;;;;;7.10;6.20;;;13.70;99.90;;;;;;5046575;28;20510;-79
2021/09/18 00:24:10;;;;;;;8.70;6.30;;;13.70;99.90;;;;;;5046877;28;20500;-80
2021/09/18 00:26:37;;;;;;;12.47;7.20;;;13.60;99.90;;;;;;5048248;28;20456;-80
2021/09/18 00:29:05;;;;;;;8.70;6.63;;;13.50;99.90;;;;;;5047871;28;20531;-79
2021/09/18 00:31:32;;;;;;;8.77;6.70;;;13.50;99.90;;;;;;5048887;28;20450;-80
2021/09/18 00:33:59;;;;;;;8.30;7.23;;;13.50;99.90;;;;;;5047395;28;20472;-80
2021/09/18 00:36:26;;;;;;;8.23;6.40;;;13.50;99.90;;;;;;5043852;28;20458;-81
2021/09/18 00:38:54;;;;;;;10.83;6.77;;;13.60;99.90;;;;;;5034746;28;20857;-80
2021/09/18 00:41:21;;;;;;;8.47;7.17;;;13.60;99.90;;;;;;5048535;28;20445;-79
2021/09/18 00:43:52;;;;;;;9.00;6.80;;;13.50;99.90;;;;;;5053437;28;20440;-79
2021/09/18 00:46:19;;;;;;;9.33;7.20;;;13.60;99.90;;;;;;5047467;28;20525;-79
2021/09/18 00:48:46;;;;;;;9.10;6.63;;;13.60;99.90;;;;;;5044766;28;20449;-80
2021/09/18 00:51:13;;;;;;;8.10;6.30;;;13.60;99.90;;;;;;5031601;28;20877;-79
2021/09/18 00:53:40;;;;;;;11.27;7.13;;;13.60;99.90;;;;;;5044441;28;21019;-79
2021/09/18 00:56:08;;;;;;;12.20;7.07;;;13.50;99.90;;;;;;5045222;28;20513;-79
2021/09/18 00:58:35;;;;;;;8.47;6.30;;;13.60;99.90;;;;;;5026964;28;20450;-79
2021/09/18 01:01:02;;;;;;;10.40;7.60;;;13.50;99.90;;;;;;5043771;28;20455;-79
2021/09/18 01:03:29;;;;;;;9.20;7.60;;;13.50;99.90;;;;;;5044655;28;20456;-79
2021/09/18 01:05:57;;;;;;;13.87;6.87;;;13.40;99.90;;;;;;5045902;28;20547;-79
2021/09/18 01:08:25;;;;;;;9.83;7.50;;;13.40;99.90;;;;;;5047771;28;20458;-79
2021/09/18 01:10:52;;;;;;;12.27;7.33;;;13.50;99.90;;;;;;5049391;28;20540;-79
2021/09/18 01:13:21;;;;;;;7.80;6.87;;;13.60;99.90;;;;;;5048521;28;20478;-79
2021/09/18 01:15:49;;;;;;;13.00;8.10;;;13.50;99.90;;;;;;5055649;28;20430;-79
2021/09/18 01:18:17;;;;;;;8.80;7.37;;;13.60;99.90;;;;;;5054110;28;20440;-80
2021/09/18 01:20:46;;;;;;;8.73;7.00;;;13.50;99.90;;;;;;5058692;28;20429;-79
2021/09/18 01:23:17;;;;;;;8.63;7.27;;;13.40;99.90;;;;;;5052233;28;20578;-80
2021/09/18 01:25:45;;;;;;;8.20;7.20;;;13.40;99.90;;;;;;5053125;28;20501;-79
2021/09/18 01:28:12;;;;;;;9.30;7.77;;;13.30;99.90;;;;;;5048438;28;20536;-77
2021/09/18 01:30:39;;;;;;;10.73;8.13;;;13.30;99.90;;;;;;5047163;28;20458;-80
2021/09/18 01:33:07;;;;;;;9.93;7.90;;;13.20;99.90;;;;;;5047728;28;20535;-79
2021/09/18 01:35:34;;;;;;;14.03;7.27;;;13.30;99.90;;;;;;5047923;28;20970;-80
2021/09/18 01:38:02;;;;;;;10.03;7.00;;;13.30;99.90;;;;;;5044210;28;20521;-79
2021/09/18 01:40:31;;;;;;;10.03;6.67;;;13.40;99.90;;;;;;5047574;28;20473;-80
2021/09/18 01:42:59;;;;;;;10.77;7.30;;;13.40;99.90;;;;;;5049007;28;20469;-79
2021/09/18 01:45:27;;;;;;;12.60;6.53;;;13.20;99.90;;;;;;5049438;28;20450;-79
2021/09/18 01:47:57;;;;;;;11.30;7.53;;;13.20;99.90;;;;;;5049142;28;20469;-81
2021/09/18 01:50:29;;;;;;;9.27;6.60;;;13.20;99.90;;;;;;5036662;28;20484;-79
2021/09/18 01:52:59;;;;;;;9.67;7.10;;;13.20;99.90;;;;;;5055298;28;20468;-79
2021/09/18 01:55:26;;;;;;;8.10;6.73;;;13.10;99.90;;;;;;5058810;28;20850;-80
2021/09/18 01:57:56;;;;;;;9.33;6.70;;;13.10;99.90;;;;;;5042910;28;20459;-80
2021/09/18 02:00:23;;;;;;;9.00;6.70;;;13.10;99.90;;;;;;5047891;28;20453;-80
2021/09/18 02:02:51;;;;;;;9.00;7.07;;;13.00;99.90;;;;;;5046860;28;20553;-78
2021/09/18 02:05:19;;;;;;;16.13;7.50;;;12.90;99.90;;;;;;5050770;28;20450;-80
2021/09/18 02:07:46;;;;;;;7.27;6.20;;;12.90;99.90;;;;;;5057118;28;20540;-79
2021/09/18 02:10:16;;;;;;;10.47;7.43;;;12.90;99.90;;;;;;5049802;28;20879;-79
2021/09/18 02:12:43;;;;;;;9.53;7.17;;;12.80;99.90;;;;;;5054178;28;20477;-79
2021/09/18 02:15:13;;;;;;;9.57;7.07;;;12.80;99.90;;;;;;5049177;28;20518;-79
2021/09/18 02:17:40;;;;;;;8.53;7.57;;;12.90;99.90;;;;;;5026872;28;20517;-80
2021/09/18 02:20:09;;;;;;;9.40;7.37;;;12.80;99.90;;;;;;5040441;28;20514;-79
2021/09/18 02:22:36;;;;;;;10.10;6.80;;;12.90;99.90;;;;;;5044513;28;20913;-80
2021/09/18 02:25:04;;;;;;;12.23;7.07;;;12.90;99.90;;;;;;5045551;28;20525;-79
2021/09/18 02:27:31;;;;;;;10.17;7.00;;;12.90;99.90;;;;;;5045730;28;20656;-80
2021/09/18 02:29:58;;;;;;;9.37;7.50;;;12.90;99.90;;;;;;5045352;28;20528;-80
2021/09/18 02:32:26;;;;;;;10.20;6.90;;;13.00;99.90;;;;;;5044145;28;20469;-80
2021/09/18 02:34:53;;;;;;;14.67;7.47;;;13.00;99.90;;;;;;5034652;28;20450;-79
2021/09/18 02:37:20;;;;;;;9.57;6.87;;;12.90;99.90;;;;;;5025685;28;20478;-79
2021/09/18 02:39:48;;;;;;;8.87;7.27;;;12.80;99.90;;;;;;5044961;28;20464;-79
2021/09/18 02:42:14;;;;;;;8.13;7.30;;;12.80;99.90;;;;;;5046081;28;20560;-79
2021/09/18 02:44:41;;;;;;;9.23;7.20;;;12.80;99.90;;;;;;5042261;28;20489;-80
2021/09/18 02:47:08;;;;;;;10.50;8.17;;;12.80;99.90;;;;;;5045051;28;20481;-80
2021/09/18 02:49:36;;;;;;;10.50;7.17;;;12.90;99.90;;;;;;5045201;28;20452;-80
2021/09/18 02:52:04;;;;;;;11.30;7.50;;;12.90;99.90;;;;;;5045757;28;20473;-80
2021/09/18 02:54:30;;;;;;;11.17;7.40;;;12.90;99.90;;;;;;5046141;28;20463;-79
2021/09/18 02:56:57;;;;;;;9.60;7.10;;;12.80;99.90;;;;;;5046428;28;20485;-79
2021/09/18 02:59:24;;;;;;;13.50;8.47;;;12.90;99.90;;;;;;5045830;28;20458;-79
2021/09/18 03:04:19;;;;;;;9.20;7.07;;;12.90;99.90;;;;;;5061361;22;20536;-79
2021/09/18 03:06:47;;;;;;;9.70;7.33;;;12.90;99.90;;;;;;5036793;28;20496;-79
2021/09/18 03:09:14;;;;;;;8.77;6.73;;;12.80;99.90;;;;;;5037206;28;20449;-79
2021/09/18 03:11:41;;;;;;;11.33;7.47;;;12.90;99.90;;;;;;5037256;28;20457;-79
2021/09/18 03:14:11;;;;;;;9.63;6.17;;;12.90;99.90;;;;;;5026273;28;20473;-80
2021/09/18 03:16:38;;;;;;;8.20;7.03;;;12.80;99.90;;;;;;5015264;28;20629;-80
2021/09/18 03:19:04;;;;;;;9.20;6.93;;;12.80;99.90;;;;;;5014760;28;20449;-80
2021/09/18 03:21:31;;;;;;;9.70;7.50;;;12.80;99.90;;;;;;5004992;28;21016;-80
2021/09/18 03:24:00;;;;;;;9.03;7.37;;;12.90;99.90;;;;;;5014452;28;20473;-80
2021/09/18 03:26:26;;;;;;;10.43;7.87;;;12.80;99.90;;;;;;5014220;28;20548;-80
2021/09/18 03:28:53;;;;;;;9.60;7.83;;;12.80;99.90;;;;;;5014103;28;20549;-80
2021/09/18 03:31:20;;;;;;;8.87;6.90;;;12.80;99.90;;;;;;5015888;28;20470;-80
2021/09/18 03:33:47;;;;;;;9.47;7.77;;;12.80;99.90;;;;;;5016743;28;20487;-80
2021/09/18 03:36:14;;;;;;;9.70;7.63;;;12.90;99.90;;;;;;5014617;28;20545;-79
2021/09/18 03:38:41;;;;;;;11.50;7.50;;;12.90;99.90;;;;;;5011565;28;20485;-80
2021/09/18 03:41:09;;;;;;;10.80;7.50;;;12.90;99.90;;;;;;5013731;28;20903;-80
2021/09/18 03:43:36;;;;;;;9.53;7.67;;;13.00;99.90;;;;;;5013958;28;20485;-79
2021/09/18 03:46:02;;;;;;;9.67;7.50;;;13.00;99.90;;;;;;5014127;28;20489;-80
2021/09/18 03:48:29;;;;;;;9.93;6.97;;;12.90;99.90;;;;;;5013875;28;20432;-80
2021/09/18 03:50:56;;;;;;;9.50;6.77;;;12.80;99.90;;;;;;5014055;28;20454;-79
2021/09/18 03:53:23;;;;;;;16.83;7.07;;;12.90;99.90;;;;;;5024745;28;20444;-81
2021/09/18 03:55:50;;;;;;;8.20;6.33;;;13.00;99.90;;;;;;5000822;28;20468;-79
2021/09/18 03:58:18;;;;;;;11.53;7.53;;;13.10;99.90;;;;;;5014483;28;20453;-80
2021/09/18 04:00:45;;;;;;;11.83;8.00;;;13.10;99.90;;;;;;5013374;28;20424;-80
2021/09/18 04:03:12;;;;;;;10.70;7.17;;;12.90;99.90;;;;;;5017490;28;20569;-79
2021/09/18 04:05:38;;;;;;;10.73;7.93;;;12.90;99.90;;;;;;5015532;28;20455;-80
2021/09/18 04:08:07;;;;;;;11.87;6.90;;;12.70;99.90;;;;;;5014591;28;20493;-80
2021/09/18 04:10:34;;;;;;;8.87;7.10;;;12.60;99.90;;;;;;5013361;28;20428;-81
2021/09/18 04:13:01;;;;;;;10.50;8.13;;;12.50;99.90;;;;;;5015382;28;20477;-80
2021/09/18 04:15:30;;;;;;;8.70;7.20;;;12.40;99.90;;;;;;5013857;28;20460;-80
2021/09/18 04:17:57;;;;;;;12.07;8.10;;;12.40;99.90;;;;;;5015196;28;20420;-80
2021/09/18 04:20:24;;;;;;;9.50;6.67;;;12.40;99.90;;;;;;5014001;28;20464;-80
2021/09/18 04:22:51;;;;;;;9.90;7.23;;;12.50;99.90;;;;;;5021942;28;20473;-81
2021/09/18 04:25:17;;;;;;;9.50;8.20;;;12.40;99.90;;;;;;5009878;28;20557;-80
2021/09/18 04:27:44;;;;;;;9.80;7.90;;;12.30;99.90;;;;;;5013162;28;20457;-80
2021/09/18 04:30:12;;;;;;;11.43;7.47;;;12.30;99.90;;;;;;5013039;28;20456;-80
2021/09/18 04:32:40;;;;;;;9.50;7.77;;;12.30;99.90;;;;;;5025970;28;20626;-80
2021/09/18 04:35:08;;;;;;;8.60;7.10;;;12.30;99.90;;;;;;5018183;28;20877;-80
2021/09/18 04:37:35;;;;;;;12.03;8.17;;;12.30;99.90;;;;;;5013688;28;20545;-80
2021/09/18 04:40:01;;;;;;;8.47;7.60;;;12.30;99.90;;;;;;5013272;28;20431;-80
2021/09/18 04:42:28;;;;;;;10.83;7.13;;;12.30;99.90;;;;;;5011203;28;20497;-80
2021/09/18 04:44:55;;;;;;;12.37;7.30;;;12.40;99.90;;;;;;5026850;28;20513;-80
2021/09/18 04:47:22;;;;;;;12.03;8.03;;;12.30;99.90;;;;;;5021571;28;20612;-80
2021/09/18 04:49:50;;;;;;;11.87;7.57;;;12.40;99.90;;;;;;5017847;28;20744;-80
2021/09/18 04:52:17;;;;;;;11.30;7.67;;;12.50;99.90;;;;;;5008809;28;21010;-80
2021/09/18 04:54:44;;;;;;;11.47;7.50;;;12.50;99.90;;;;;;5016958;28;20461;-80
2021/09/18 04:57:10;;;;;;;11.73;7.90;;;12.50;99.90;;;;;;5015275;28;20497;-80
2021/09/18 04:59:37;;;;;;;11.87;8.83;;;12.40;99.90;;;;;;5012527;28;20457;-80
2021/09/18 05:02:04;;;;;;;14.43;9.33;;;12.40;99.90;;;;;;5021730;28;20453;-80
2021/09/18 05:04:31;;;;;;;13.07;8.27;;;12.30;99.90;;;;;;5020018;28;20432;-80
2021/09/18 05:06:59;;;;;;;13.30;7.97;;;12.20;99.90;;;;;;5017157;28;20583;-81
2021/09/18 05:09:26;;;;;;;11.23;7.70;;;12.20;99.90;;;;;;5018605;28;20469;-81
2021/09/18 05:11:53;;;;;;;10.57;7.53;;;12.20;99.90;;;;;;5016811;28;20458;-81
2021/09/18 05:14:19;;;;;;;10.10;7.67;;;12.20;99.90;;;;;;5017087;28;20448;-80
2021/09/18 05:16:46;;;;;;;9.13;7.80;;;12.20;99.90;;;;;;5017163;28;20524;-80
2021/09/18 05:19:13;;;;;;;10.30;7.70;;;12.20;99.90;;;;;;5017671;28;20435;-80
2021/09/18 05:21:40;;;;;;;9.03;7.20;;;12.20;99.90;;;;;;5018539;28;20468;-80
2021/09/18 05:24:08;;;;;;;11.50;8.13;;;12.10;99.90;;;;;;5017896;28;20789;-80
2021/09/18 05:26:35;;;;;;;9.60;7.50;;;12.10;99.90;;;;;;5020425;28;20435;-80
2021/09/18 05:29:02;;;;;;;9.30;7.70;;;12.20;99.90;;;;;;5013095;28;20441;-80
2021/09/18 05:31:28;;;;;;;9.20;7.13;;;12.30;99.90;;;;;;5032263;28;20439;-80
2021/09/18 05:33:55;;;;;;;17.00;8.50;;;12.30;99.90;;;;;;5016920;28;20520;-80
2021/09/18 05:36:22;;;;;;;11.13;7.80;;;12.40;99.90;;;;;;5017986;28;20446;-80
2021/09/18 05:38:49;;;;;;;9.17;7.50;;;12.40;99.90;;;;;;5017731;28;20458;-80
2021/09/18 05:41:17;;;;;;;12.07;8.10;;;12.30;99.90;;;;;;5021253;28;20484;-79
2021/09/18 05:43:45;;;;;;;9.17;7.23;;;12.40;99.90;;;;;;5015109;28;20552;-80
2021/09/18 05:46:12;;;;;;;9.40;7.57;;;12.40;99.90;;;;;;5014473;28;20600;-80
2021/09/18 05:48:39;;;;;;;9.07;6.80;;;12.50;99.90;;;;;;5016756;28;20580;-80
2021/09/18 05:51:06;;;;;;;11.90;8.30;;;12.50;99.90;;;;;;5030039;28;20457;-80
2021/09/18 05:53:32;;;;;;;11.43;8.30;;;12.40;99.90;;;;;;5016779;28;20657;-79
2021/09/18 05:55:59;;;;;;;10.97;8.20;;;12.40;99.90;;;;;;5017053;28;20458;-80
2021/09/18 05:58:27;;;;;;;10.90;7.30;;;12.40;99.90;;;;;;5017587;28;20544;-80
2021/09/18 06:00:55;;;;;;;12.73;8.47;;;12.40;99.90;;;;;;5022001;28;20977;-80
2021/09/18 06:03:22;;;;;;;11.57;8.70;;;12.50;99.90;;;;;;5016249;28;20494;-80
2021/09/18 06:05:48;;;;;;;10.70;8.73;;;12.40;99.90;;;;;;5006327;28;20470;-79
2021/09/18 06:08:15;;;;;;;9.87;8.50;;;12.40;99.90;;;;;;5013401;28;20474;-80
2021/09/18 06:10:42;;;;;;;10.50;8.70;;;12.30;99.90;;;;;;5021724;28;20454;-80
2021/09/18 06:13:09;;;;;;;11.87;8.60;;;12.40;99.90;;;;;;5015995;28;20484;-80
2021/09/18 06:15:37;;;;;;;16.00;9.77;;;12.40;99.90;;;;;;5016762;28;20425;-79
2021/09/18 06:18:04;;;;;;;12.37;9.00;;;12.50;99.90;;;;;;5016758;28;20478;-80
2021/09/18 06:20:31;;;;;;;13.80;9.70;;;12.60;99.90;;;;;;5025478;28;20440;-80
2021/09/18 06:22:58;;;;;;;14.30;10.23;;;12.70;99.90;;;;;;5016652;28;20496;-80
2021/09/18 06:25:25;;;;;;;15.03;10.80;;;12.70;99.90;;;;;;5012079;28;20509;-80
2021/09/18 06:27:52;;;;;;;14.10;10.13;;;12.80;99.90;;;;;;5017567;28;20467;-79
2021/09/18 06:30:18;;;;;;;12.70;9.83;;;12.80;99.90;;;;;;5031021;28;20432;-79
2021/09/18 06:32:46;;;;;;;11.07;8.97;;;13.00;99.90;;;;;;5019842;28;20449;-79
2021/09/18 06:35:14;;;;;;;13.53;9.97;;;13.10;99.90;;;;;;5012178;28;20449;-79
2021/09/18 06:37:43;;;;;;;10.50;8.80;;;13.30;99.90;;;;;;5015900;28;20433;-80
2021/09/18 06:40:12;;;;;;;11.73;10.23;;;13.30;99.90;;;;;;5021727;28;20424;-80
2021/09/18 06:42:39;;;;;;;15.20;11.00;;;13.40;99.90;;;;;;5017772;28;20828;-79
2021/09/18 06:45:06;;;;;;;18.33;12.63;;;13.40;99.90;;;;;;5015591;28;20451;-80
2021/09/18 06:47:33;;;;;;;13.07;11.50;;;13.40;99.90;;;;;;5015247;28;20482;-80
2021/09/18 06:50:02;;;;;;;15.20;11.60;;;13.40;99.90;;;;;;5017412;28;20469;-79
2021/09/18 06:52:29;;;;;;;15.73;12.00;;;13.50;99.90;;;;;;5019164;28;20489;-79
2021/09/18 06:54:56;;;;;;;13.80;10.87;;;13.60;99.90;;;;;;5016579;28;20512;-80
2021/09/18 06:57:22;;;;;;;16.43;13.10;;;13.60;99.90;;;;;;5011688;28;20436;-81
2021/09/18 06:59:49;;;;;;;17.97;13.00;;;13.70;99.90;;;;;;5018683;28;20462;-80
2021/09/18 07:02:16;;;;;;;14.13;11.00;;;13.70;99.90;;;;;;5015020;28;20441;-80
2021/09/18 07:04:43;;;;;;;14.07;11.73;;;13.80;99.90;;;;;;5019288;28;20432;-82
2021/09/18 07:07:12;;;;;;;14.60;11.60;;;13.90;99.90;;;;;;5019358;28;20429;-82
2021/09/18 07:09:39;;;;;;;13.53;11.47;;;14.00;99.90;;;;;;5025845;28;20949;-83
2021/09/18 07:12:06;;;;;;;14.10;12.33;;;14.10;99.90;;;;;;5018260;28;20433;-82
2021/09/18 07:14:33;;;;;;;14.63;12.23;;;14.20;99.90;;;;;;5022018;28;20451;-81
2021/09/18 07:17:01;;;;;;;17.07;12.70;;;14.20;99.90;;;;;;5017159;28;20413;-81
2021/09/18 07:19:28;;;;;;;15.03;12.73;;;14.30;99.90;;;;;;5026871;28;20450;-83
2021/09/18 07:21:54;;;;;;;13.60;11.27;;;14.40;99.90;;;;;;5016458;28;20829;-81
2021/09/18 07:24:23;;;;;;;15.40;12.50;;;14.40;99.90;;;;;;5014790;28;20818;-80
2021/09/18 07:26:50;;;;;;;16.10;13.37;;;14.50;99.90;;;;;;5015533;28;20455;-79
2021/09/18 07:29:16;;;;;;;15.23;12.43;;;14.60;99.90;;;;;;5022343;28;20461;-80
2021/09/18 07:31:43;;;;;;;13.93;12.13;;;14.70;99.90;;;;;;5016029;28;20549;-80
2021/09/18 07:34:10;;;;;;;13.90;12.20;;;14.80;99.90;;;;;;5015132;28;21058;-79
2021/09/18 07:36:37;;;;;;;13.40;12.00;;;14.90;99.90;;;;;;5015473;28;20541;-82
2021/09/18 07:39:04;;;;;;;13.37;11.97;;;15.10;99.90;;;;;;5024307;28;20420;-79
2021/09/18 07:41:32;;;;;;;17.03;12.50;;;15.30;99.90;;;;;;5016543;28;20469;-78
2021/09/18 07:44:00;;;;;;;12.90;11.50;;;15.50;99.90;;;;;;5020542;28;20493;-78
2021/09/18 07:46:28;;;;;;;15.63;12.73;;;15.60;99.90;;;;;;5014563;28;20962;-79
2021/09/18 07:48:55;;;;;;;16.40;13.30;;;15.70;99.90;;;;;;5014577;28;20496;-78
2021/09/18 07:51:22;;;;;;;14.47;11.30;;;15.80;99.90;;;;;;5012451;28;20545;-78
2021/09/18 07:53:48;;;;;;;14.00;10.93;;;15.90;99.90;;;;;;5012580;28;20528;-77
2021/09/18 07:56:15;;;;;;;15.50;11.80;;;16.10;99.90;;;;;;5012608;28;20890;-77
2021/09/18 07:58:44;;;;;;;13.00;11.70;;;16.00;99.90;;;;;;5017528;28;20420;-78
2021/09/18 08:01:11;;;;;;;16.30;12.00;;;16.10;99.90;;;;;;5021782;28;20454;-78
2021/09/18 08:03:38;;;;;;;17.73;11.40;;;16.20;99.90;;;;;;5013518;28;20482;-79
2021/09/18 08:06:05;;;;;;;14.00;11.23;;;16.20;99.90;;;;;;5013340;28;20447;-85
2021/09/18 08:08:32;;;;;;;15.43;12.37;;;16.40;99.90;;;;;;5017594;28;20475;-78
2021/09/18 08:10:59;;;;;;;13.93;12.40;;;16.40;99.90;;;;;;5020909;28;20440;-77
2021/09/18 08:13:26;;;;;;;13.87;12.40;;;16.50;99.90;;;;;;5012433;28;20482;-77
2021/09/18 08:15:54;;;;;;;15.27;11.80;;;16.50;99.90;;;;;;5013159;28;20999;-77
2021/09/18 08:18:21;;;;;;;13.27;11.40;;;16.50;99.90;;;;;;5016266;28;20444;-77
2021/09/18 08:20:47;;;;;;;15.13;11.73;;;16.60;99.90;;;;;;5019398;28;20551;-77
2021/09/18 08:23:14;;;;;;;14.30;11.63;;;16.60;99.90;;;;;;5015891;28;21022;-77
2021/09/18 08:25:41;;;;;;;14.30;10.93;;;16.60;99.90;;;;;;5019768;28;20449;-79
2021/09/18 08:28:08;;;;;;;11.33;9.97;;;16.70;99.90;;;;;;5016357;28;20461;-78
2021/09/18 08:30:35;;;;;;;11.73;10.07;;;16.70;99.90;;;;;;5017145;28;20523;-78
2021/09/18 08:33:03;;;;;;;12.67;10.80;;;16.80;99.90;;;;;;5017851;28;20479;-78
2021/09/18 08:35:30;;;;;;;11.43;9.60;;;16.80;99.90;;;;;;5017766;28;20855;-78
2021/09/18 08:37:57;;;;;;;15.20;11.03;;;16.80;99.90;;;;;;5003408;28;20535;-79
2021/09/18 08:40:27;;;;;;;12.77;10.00;;;16.90;99.90;;;;;;5024056;28;20421;-78
2021/09/18 08:42:55;;;;;;;11.43;10.17;;;17.10;99.90;;;;;;5016666;28;20472;-79
2021/09/18 08:45:22;;;;;;;15.50;10.23;;;17.20;99.90;;;;;;5019137;28;20466;-78
2021/09/18 08:47:50;;;;;;;13.10;10.07;;;17.40;99.90;;;;;;5015454;28;20723;-77
2021/09/18 08:50:20;;;;;;;11.43;9.67;;;17.40;99.90;;;;;;5023036;28;20496;-77
2021/09/18 08:52:47;;;;;;;10.37;9.13;;;17.40;99.90;;;;;;5018060;28;20972;-78
2021/09/18 08:55:15;;;;;;;10.47;9.40;;;17.50;99.90;;;;;;5014797;28;20485;-77
2021/09/18 08:57:42;;;;;;;12.07;8.83;;;17.60;99.90;;;;;;5014757;28;20808;-77
2021/09/18 09:00:30;;;;;;;11.10;9.20;;;17.70;99.90;;;;;;5016881;28;20465;-84
2021/09/18 09:02:58;;;;;;;9.50;8.07;;;17.80;99.90;;;;;;5047569;22;20469;-80
2021/09/18 09:05:30;;;;;;;10.33;9.27;;;17.90;99.90;;;;;;5053733;28;20930;-79
2021/09/18 09:08:05;;;;;;;12.53;9.10;;;18.00;99.90;;;;;;5060910;28;20435;-78
2021/09/18 09:10:32;;;;;;;11.27;9.13;;;18.10;99.90;;;;;;5058398;28;20455;-79
2021/09/18 09:13:05;;;;;;;14.60;9.23;;;18.20;99.90;;;;;;5048843;28;20470;-78
2021/09/18 09:15:32;;;;;;;11.83;7.77;;;18.20;99.90;;;;;;5049486;28;20440;-78
2021/09/18 09:18:17;;;;;;;13.90;9.23;;;18.30;99.90;;;;;;5055143;28;20434;-79
2021/09/18 09:20:46;;;;;;;8.50;7.47;;;18.30;99.90;;;;;;5058397;28;20452;-78
2021/09/18 09:23:15;;;;;;;13.70;9.53;;;18.30;99.90;;;;;;5053740;28;20804;-79
2021/09/18 09:25:43;;;;;;;10.80;7.93;;;18.40;99.90;;;;;;5042814;28;20569;-78
2021/09/18 09:28:31;;;;;;;11.10;8.40;;;18.40;99.90;;;;;;5064938;28;20492;-78
2021/09/18 09:31:10;;;;;;;8.63;6.90;;;18.40;99.90;;;;;;5063073;28;20581;-78
2021/09/18 09:33:37;;;;;;;10.83;8.20;;;18.50;99.90;;;;;;5046896;28;20478;-78
2021/09/18 09:36:16;;;;;;;9.80;8.03;;;18.60;99.90;;;;;;5041387;28;20465;-78
2021/09/18 09:38:51;;;;;;;7.23;5.93;;;18.80;99.90;;;;;;5040878;28;20451;-78
2021/09/18 09:41:30;;;;;;;8.97;7.00;;;18.90;99.90;;;;;;5044029;28;20450;-78
2021/09/18 09:43:57;;;;;;;8.87;6.70;;;19.10;99.90;;;;;;5049596;28;20462;-78
2021/09/18 09:46:24;;;;;;;8.63;6.80;;;19.20;99.90;;;;;;5050927;28;20419;-78
2021/09/18 09:49:13;;;;;;;12.43;6.50;;;19.10;99.90;;;;;;5056146;28;20551;-78
2021/09/18 09:51:43;;;;;;;9.20;6.13;;;19.20;99.90;;;;;;5031383;28;20461;-78
2021/09/18 09:54:18;;;;;;;8.90;6.43;;;19.20;99.90;;;;;;5038338;28;20472;-78
2021/09/18 09:56:45;;;;;;;6.53;4.33;;;19.30;99.90;;;;;;5036424;28;20452;-78
2021/09/18 09:59:12;;;;;;;7.17;5.40;;;19.30;99.90;;;;;;5038721;28;20455;-78
2021/09/18 10:01:39;;;;;;;7.13;2.80;;;19.50;99.90;;;;;;5045633;28;20811;-78
2021/09/18 10:04:06;;;;;;;3.57;2.03;;;19.40;99.90;;;;;;5052217;28;20484;-78
2021/09/18 10:06:33;;;;;;;5.27;2.20;;;19.50;98.50;;;;;;5054904;28;20535;-78
2021/09/18 10:09:02;;;;;;;3.53;1.97;;;19.50;98.00;;;;;;5042927;28;20610;-77
2021/09/18 10:11:34;;;;;;;5.63;2.07;;;19.50;97.50;;;;;;5037705;28;20472;-80
2021/09/18 10:14:02;;;;;;;3.60;2.10;;;19.60;97.50;;;;;;5045698;28;20562;-78
2021/09/18 10:16:31;;;;;;;6.27;2.57;;;19.60;97.80;;;;;;5044114;28;20906;-77
2021/09/18 10:19:02;;;;;;;3.73;2.23;;;19.70;98.00;;;;;;5045842;28;20454;-79
2021/09/18 10:24:15;;;;;;;4.30;2.70;;;19.80;98.20;;;;;;5056368;28;20481;-78
2021/09/18 10:26:42;;;;;;;5.63;2.83;;;19.90;98.20;;;;;;5044286;28;20512;-78
2021/09/18 10:29:08;;;;;;;4.10;2.80;;;20.00;98.10;;;;;;5046982;28;20570;-78
2021/09/18 10:31:35;;;;;;;5.47;2.63;;;19.90;98.20;;;;;;5057180;28;20481;-78
2021/09/18 10:34:21;;;;;;;3.90;2.67;;;20.00;98.40;;;;;;5055277;28;20907;-78
2021/09/18 10:36:48;;;;;;;3.40;1.87;;;20.00;97.50;;;;;;5043859;28;20464;-78
2021/09/18 10:39:19;;;;;;;3.60;2.07;;;19.90;96.20;;;;;;5037637;28;20444;-78
2021/09/18 10:41:48;;;;;;;4.20;2.40;;;20.00;96.30;;;;;;5036108;28;20535;-78
2021/09/18 10:44:17;;;;;;;3.83;2.60;;;20.20;97.10;;;;;;5037732;28;20472;-78
2021/09/18 10:46:47;;;;;;;7.83;6.30;;;20.20;96.90;;;;;;5036998;28;20471;-78
2021/09/18 10:49:41;;;;;;;3.63;2.10;;;20.30;96.70;;;;;;5048718;28;20509;-78
2021/09/18 10:52:22;;;;;;;3.80;2.20;;;20.40;96.20;;;;;;5057794;28;20487;-78
2021/09/18 10:55:15;;;;;;;3.60;2.00;;;20.40;95.30;;;;;;5042965;28;20459;-79
2021/09/18 10:58:05;;;;;;;3.53;1.83;;;20.50;94.40;;;;;;5051586;28;20475;-77
2021/09/18 11:00:41;;;;;;;4.60;2.70;;;20.50;94.60;;;;;;5045090;28;20418;-79
2021/09/18 11:03:08;;;;;;;3.37;2.00;;;20.50;94.60;;;;;;5060506;28;20471;-78
2021/09/18 11:05:48;;;;;;;3.63;2.50;;;20.50;95.00;;;;;;5046332;28;20483;-78
2021/09/18 11:08:37;;;;;;;3.83;2.27;;;20.50;95.20;;;;;;5037184;28;20501;-78
2021/09/18 11:11:13;;;;;;;4.53;2.50;;;20.60;95.60;;;;;;5028277;28;20432;-78
2021/09/18 11:13:42;;;;;;;4.80;2.20;;;20.60;95.00;;;;;;5037145;28;20487;-77
2021/09/18 11:16:23;;;;;;;3.80;2.37;;;20.70;95.30;;;;;;5037020;28;20460;-78
2021/09/18 11:18:58;;;;;;;3.80;2.80;;;20.60;95.40;;;;;;5042331;28;20520;-78
2021/09/18 11:21:27;;;;;;;5.10;4.00;;;20.70;96.10;;;;;;5054416;28;20562;-78
2021/09/18 11:23:56;;;;;;;7.20;5.20;;;20.80;97.90;;;;;;5046954;28;20484;-78
2021/09/18 11:26:38;;;;;;;5.57;4.30;;;20.80;98.50;;;;;;5041010;28;20454;-78
2021/09/18 11:29:29;;;;;;;5.17;4.43;;;20.90;99.00;;;;;;5044454;28;20483;-79
2021/09/18 11:31:59;;;;;;;5.50;4.43;;;21.00;98.30;;;;;;5035897;28;20479;-78
2021/09/18 11:34:28;;;;;;;6.40;4.90;;;20.90;98.40;;;;;;5053773;28;20452;-79
2021/09/18 11:36:57;;;;;;;5.07;4.23;;;20.90;98.50;;;;;;5039932;28;20826;-78
2021/09/18 11:39:38;;;;;;;6.00;4.30;;;20.80;98.30;;;;;;5047390;28;20520;-78
2021/09/18 11:42:22;;;;;;;5.93;5.20;;;20.90;98.50;;;;;;5019219;28;20544;-80
2021/09/18 11:44:52;;;;;;;5.77;4.40;;;21.10;98.20;;;;;;5047054;28;20414;-79
2021/09/18 11:47:23;;;;;;;5.30;4.20;;;21.10;97.30;;;;;;5042240;28;20437;-80
2021/09/18 11:49:51;;;;;;;6.40;4.40;;;21.10;97.50;;;;;;5052312;28;20500;-80
2021/09/18 11:52:18;;;;;;;7.07;5.30;;;21.00;97.40;;;;;;5055342;28;20836;-78
2021/09/18 11:54:45;;;;;;;5.50;4.63;;;20.90;97.60;;;;;;5054023;28;20449;-80
2021/09/18 11:57:18;;;;;;;5.77;4.50;;;20.80;97.90;;;;;;5039866;28;20466;-78
2021/09/18 11:59:46;;;;;;;5.47;4.00;;;20.80;97.90;;;;;;5049994;28;20447;-79
2021/09/18 12:02:13;;;;;;;5.07;3.83;;;20.80;98.00;;;;;;5051183;28;20480;-79
2021/09/18 12:04:45;;;;;;;5.37;4.50;;;20.80;96.70;;;;;;5042215;28;20485;-79
2021/09/18 12:07:14;;;;;;;6.63;4.57;;;20.90;96.40;;;;;;5041471;28;20539;-78
2021/09/18 12:09:41;;;;;;;5.67;4.03;;;20.90;96.70;;;;;;5053208;28;20499;-78
2021/09/18 12:12:09;;;;;;;5.63;3.70;;;21.00;96.80;;;;;;5051171;28;20942;-79
2021/09/18 12:14:38;;;;;;;4.60;3.20;;;21.00;96.10;;;;;;5056436;28;20511;-79
2021/09/18 12:17:13;;;;;;;5.03;3.50;;;21.00;95.90;;;;;;5045346;28;20460;-78
2021/09/18 12:19:41;;;;;;;5.03;4.23;;;21.20;96.00;;;;;;5055648;28;21007;-80
2021/09/18 12:22:08;;;;;;;6.37;4.63;;;21.20;94.70;;;;;;5055795;28;20499;-81
2021/09/18 12:24:37;;;;;;;8.90;4.30;;;21.20;94.80;;;;;;5044624;28;20470;-78
2021/09/18 12:27:23;;;;;;;5.87;4.13;;;21.20;95.20;;;;;;5038774;28;20453;-80
2021/09/18 12:30:14;;;;;;;5.63;4.40;;;21.30;95.10;;;;;;5051619;28;20479;-87
2021/09/18 12:32:41;;;;;;;6.27;4.93;;;21.30;95.20;;;;;;5041056;28;20485;-80
2021/09/18 12:35:10;;;;;;;7.93;4.30;;;21.40;95.50;;;;;;5038360;28;20584;-80
2021/09/18 12:37:39;;;;;;;6.30;5.10;;;21.40;95.60;;;;;;5046056;28;20457;-79
2021/09/18 12:40:11;;;;;;;5.03;3.90;;;21.50;94.10;;;;;;5016688;28;20458;-85
2021/09/18 12:42:38;;;;;;;5.40;4.03;;;21.50;94.60;;;;;;5020226;28;20514;-79
2021/09/18 12:45:22;;;;;;;6.53;4.17;;;21.60;94.70;;;;;;5021201;28;20505;-84
2021/09/18 12:47:49;;;;;;;4.90;4.17;;;21.70;94.90;;;;;;5056537;28;20468;-79
2021/09/18 12:50:17;;;;;;;6.57;4.20;;;21.70;94.80;;;;;;5047154;28;20503;-78
2021/09/18 12:52:44;;;;;;;6.27;4.83;;;21.80;95.50;;;;;;5041797;28;20473;-78
2021/09/18 12:55:11;;;;;;;6.30;5.13;;;21.90;95.60;;;;;;5036610;28;20471;-80